Time;durP1;ratioP1;P1;durP2;ratioP2;P2;SDS_P1;SDS_P2;PMS_P1;PMS_P2;Temp;Humidity;BMP_temperature;BMP_pressure;BME280_temperature;BME280_humidity;BME280_pressure;Samples;Min_cycle;Max_cycle;Signal;HPM_P1;HPM_P2
2022/08/31 00:04:18;;;;;;;11.60;6.50;;;;;;;16.14;70.97;99503.09;108877;1279;139629;-64
2022/08/31 00:06:45;;;;;;;10.00;6.20;;;;;;;16.11;71.12;99504.27;108900;1278;22443;-64
2022/08/31 00:09:19;;;;;;;11.80;6.10;;;;;;;16.07;71.35;99506.79;108522;1277;140069;-63
2022/08/31 00:11:46;;;;;;;10.30;6.40;;;;;;;16.03;71.54;99510.52;109048;1277;22769;-64
2022/08/31 00:14:12;;;;;;;10.30;6.70;;;;;;;15.99;71.73;99509.21;108924;1277;22460;-64
2022/08/31 00:16:40;;;;;;;10.50;6.50;;;;;;;15.98;71.73;99511.43;108874;1277;138895;-63
2022/08/31 00:19:07;;;;;;;9.10;5.30;;;;;;;15.93;71.81;99508.29;109029;1277;22452;-64
2022/08/31 00:21:34;;;;;;;11.40;5.60;;;;;;;15.90;71.92;99510.63;108951;1277;139266;-64
2022/08/31 00:24:01;;;;;;;8.20;6.20;;;;;;;15.88;72.03;99508.71;108915;1277;22615;-64
2022/08/31 00:26:28;;;;;;;10.40;6.30;;;;;;;15.86;71.97;99508.48;108899;1277;139858;-63
2022/08/31 00:28:54;;;;;;;8.00;5.80;;;;;;;15.83;72.13;99512.21;107953;1278;1390698;-63
2022/08/31 00:32:23;;;;;;;9.20;6.30;;;;;;;15.80;72.30;99513.77;101709;1307;545254;-64
2022/08/31 00:34:54;;;;;;;10.10;7.00;;;;;;;15.76;72.41;99514.80;108247;1287;23017;-64
2022/08/31 00:37:21;;;;;;;10.80;6.50;;;;;;;15.74;72.45;99510.77;108134;1287;22493;-65
2022/08/31 00:39:47;;;;;;;7.80;6.00;;;;;;;15.71;72.57;99507.85;108164;1286;137648;-65
2022/08/31 00:42:14;;;;;;;10.30;7.10;;;;;;;15.67;72.73;99511.02;108107;1286;22456;-65
2022/08/31 00:44:41;;;;;;;14.20;6.40;;;;;;;15.62;72.81;99510.84;108068;1287;138516;-64
2022/08/31 00:47:09;;;;;;;11.30;6.90;;;;;;;15.58;73.03;99506.94;107241;1286;1369657;-64
2022/08/31 00:49:37;;;;;;;9.30;6.10;;;;;;;15.53;73.25;99507.13;108273;1286;22411;-65
2022/08/31 00:52:21;;;;;;;12.20;6.40;;;;;;;15.52;73.42;99510.05;108215;1284;137877;-64
2022/08/31 00:55:00;;;;;;;9.50;6.20;;;;;;;15.48;73.58;99515.73;108234;1286;22475;-65
2022/08/31 00:57:33;;;;;;;13.20;5.90;;;;;;;15.44;73.75;99513.58;108176;1286;137896;-65
2022/08/31 01:00:01;;;;;;;10.10;5.70;;;;;;;15.43;73.86;99513.94;108252;1287;22492;-64
2022/08/31 01:02:28;;;;;;;10.30;7.30;;;;;;;15.41;73.93;99512.63;107843;1286;137830;-65
2022/08/31 01:04:55;;;;;;;13.10;6.50;;;;;;;15.39;73.99;99516.11;108231;1286;22606;-65
2022/08/31 01:07:22;;;;;;;12.00;7.20;;;;;;;15.36;74.12;99514.87;108295;1286;22418;-64
2022/08/31 01:09:49;;;;;;;12.20;6.50;;;;;;;15.34;74.26;99515.21;108391;1284;138430;-65
2022/08/31 01:12:21;;;;;;;10.00;6.20;;;;;;;15.33;74.39;99518.79;108292;1286;22479;-65
2022/08/31 01:14:48;;;;;;;9.20;6.20;;;;;;;15.31;74.43;99517.00;108212;1284;139804;-64
2022/08/31 01:17:16;;;;;;;13.10;6.50;;;;;;;15.30;74.58;99519.38;108365;1285;22445;-65
2022/08/31 01:20:42;;;;;;;10.60;7.30;;;;;;;15.29;74.76;99518.56;108263;1284;22448;-64
2022/08/31 01:23:26;;;;;;;14.00;6.10;;;;;;;15.33;74.83;99516.44;107455;1293;22262;-64
2022/08/31 01:25:54;;;;;;;11.10;6.20;;;;;;;15.35;74.90;99518.66;107294;1292;22647;-64
2022/08/31 01:28:21;;;;;;;9.70;6.90;;;;;;;15.36;74.79;99519.21;106926;1295;138415;-64
2022/08/31 01:31:04;;;;;;;9.30;6.70;;;;;;;15.33;74.76;99521.26;107362;1293;22494;-64
2022/08/31 01:33:32;;;;;;;10.80;6.90;;;;;;;15.32;74.93;99519.79;107076;1293;137670;-64
2022/08/31 01:35:59;;;;;;;8.20;6.50;;;;;;;15.32;75.04;99520.23;107245;1294;22641;-63
2022/08/31 01:38:27;;;;;;;12.20;7.00;;;;;;;15.33;75.23;99518.73;107376;1293;138987;-63
2022/08/31 01:40:55;;;;;;;11.00;6.50;;;;;;;15.34;75.21;99518.50;107073;1295;22452;-64
2022/08/31 01:43:23;;;;;;;10.10;6.20;;;;;;;15.35;75.15;99517.02;107355;1293;23629;-64
2022/08/31 01:45:50;;;;;;;9.70;6.60;;;;;;;15.34;75.12;99519.73;107059;1294;137998;-63
2022/08/31 01:48:18;;;;;;;10.80;6.60;;;;;;;15.34;75.23;99517.52;107580;1291;22435;-64
2022/08/31 01:50:45;;;;;;;12.90;6.40;;;;;;;15.34;75.09;99517.25;107514;1290;138257;-64
2022/08/31 01:53:12;;;;;;;10.40;6.80;;;;;;;15.33;75.05;99511.27;107661;1290;22499;-64
2022/08/31 01:55:39;;;;;;;10.60;6.60;;;;;;;15.32;75.14;99513.02;107627;1292;23618;-64
2022/08/31 01:58:06;;;;;;;10.20;6.00;;;;;;;15.32;75.27;99511.94;108306;1284;138036;-64
2022/08/31 02:00:56;;;;;;;10.40;5.90;;;;;;;15.33;75.25;99512.70;108481;1283;23460;-64
2022/08/31 02:03:23;;;;;;;11.20;6.50;;;;;;;15.32;75.20;99513.70;108343;1284;139713;-64
2022/08/31 02:05:50;;;;;;;7.80;5.80;;;;;;;15.29;75.32;99508.59;108342;1284;22442;-64
2022/08/31 02:08:17;;;;;;;7.30;5.40;;;;;;;15.27;75.48;99506.67;108432;1282;22433;-64
2022/08/31 02:10:45;;;;;;;12.30;6.10;;;;;;;15.27;75.61;99504.48;108434;1284;22449;-64
2022/08/31 02:13:12;;;;;;;12.60;6.10;;;;;;;15.26;75.68;99498.18;108565;1284;23537;-64
2022/08/31 02:15:39;;;;;;;12.60;6.30;;;;;;;15.26;75.83;99501.64;108478;1284;138756;-64
2022/08/31 02:18:06;;;;;;;12.70;6.80;;;;;;;15.27;75.95;99498.61;108548;1283;23141;-64
2022/08/31 02:20:33;;;;;;;20.60;7.10;;;;;;;15.31;76.04;99495.37;108498;1283;139085;-64
2022/08/31 02:23:02;;;;;;;15.00;7.10;;;;;;;15.36;76.00;99493.78;108416;1284;22450;-64
2022/08/31 02:25:29;;;;;;;14.70;6.80;;;;;;;15.41;75.98;99490.98;108878;1281;22580;-63
2022/08/31 02:27:56;;;;;;;45.60;7.50;;;;;;;15.47;75.71;99485.48;108492;1284;139176;-64
2022/08/31 02:30:23;;;;;;;33.50;8.10;;;;;;;15.51;75.54;99487.04;108595;1284;22495;-64
2022/08/31 02:32:50;;;;;;;11.60;7.00;;;;;;;15.53;75.27;99492.58;108534;1283;138291;-64
2022/08/31 02:35:17;;;;;;;16.00;6.70;;;;;;;15.54;75.20;99494.98;108441;1284;23031;-65
2022/08/31 02:37:44;;;;;;;13.50;6.50;;;;;;;15.56;75.07;99493.72;108631;1284;22486;-64
2022/08/31 02:40:13;;;;;;;11.50;6.60;;;;;;;15.57;74.91;99493.50;108516;1284;139993;-64
2022/08/31 02:42:40;;;;;;;13.00;6.60;;;;;;;15.54;74.83;99495.38;108473;1284;23101;-63
2022/08/31 02:45:22;;;;;;;11.90;6.50;;;;;;;15.48;74.86;99497.11;108493;1284;139537;-64
2022/08/31 02:47:48;;;;;;;11.70;5.30;;;;;;;15.45;75.02;99501.05;108454;1284;22462;-64
2022/08/31 02:50:37;;;;;;;15.60;5.90;;;;;;;15.41;75.11;99501.48;108240;1284;138149;-64
2022/08/31 02:53:04;;;;;;;11.40;6.20;;;;;;;15.37;75.35;99499.98;108572;1284;23424;-64
2022/08/31 02:55:31;;;;;;;8.10;5.70;;;;;;;15.34;75.43;99495.67;108546;1284;23604;-64
2022/08/31 02:57:58;;;;;;;10.10;6.90;;;;;;;15.33;75.60;99497.93;108479;1284;138843;-64
2022/08/31 03:00:25;;;;;;;13.10;6.40;;;;;;;15.33;75.64;99493.38;108652;1284;22425;-64
2022/08/31 03:02:53;;;;;;;11.30;7.00;;;;;;;15.34;75.64;99490.62;108481;1284;138576;-64
2022/08/31 03:05:21;;;;;;;12.00;5.70;;;;;;;15.35;75.69;99492.20;108599;1283;22546;-64
2022/08/31 03:07:51;;;;;;;9.40;6.80;;;;;;;15.37;75.66;99492.52;108491;1284;22579;-64
2022/08/31 03:10:19;;;;;;;11.50;7.40;;;;;;;15.41;75.66;99491.83;108463;1284;137863;-65
2022/08/31 03:12:47;;;;;;;16.40;7.10;;;;;;;15.43;75.56;99492.62;108443;1284;22467;-64
2022/08/31 03:15:15;;;;;;;15.90;6.90;;;;;;;15.46;75.59;99491.70;108276;1283;138972;-65
2022/08/31 03:17:44;;;;;;;11.30;7.10;;;;;;;15.49;75.56;99491.29;108588;1283;22972;-66
2022/08/31 03:20:11;;;;;;;15.00;6.60;;;;;;;15.51;75.48;99491.04;108414;1283;22476;-64
2022/08/31 03:22:38;;;;;;;8.70;6.00;;;;;;;15.54;75.34;99489.87;108317;1284;137732;-66
2022/08/31 03:25:06;;;;;;;13.40;7.40;;;;;;;15.56;75.35;99495.32;108469;1283;22501;-66
2022/08/31 03:27:33;;;;;;;12.20;6.80;;;;;;;15.57;75.21;99493.01;108507;1283;141206;-66
2022/08/31 03:29:59;;;;;;;15.90;7.50;;;;;;;15.54;75.21;99493.45;108677;1283;23322;-65
2022/08/31 03:32:30;;;;;;;16.50;11.00;;;;;;;15.53;75.34;99499.05;108949;1278;138652;-65
2022/08/31 03:34:59;;;;;;;17.60;11.30;;;;;;;15.52;75.36;99498.17;108862;1278;23579;-66
2022/08/31 03:37:26;;;;;;;22.70;11.60;;;;;;;15.52;75.37;99498.40;109014;1278;22458;-66
2022/08/31 03:39:55;;;;;;;23.80;13.50;;;;;;;15.48;75.35;99499.14;108919;1278;138673;-61
2022/08/31 03:42:22;;;;;;;27.30;15.10;;;;;;;15.46;75.46;99497.08;109134;1277;22464;-60
2022/08/31 03:44:49;;;;;;;27.60;16.40;;;;;;;15.45;75.49;99496.86;108759;1277;138928;-61
2022/08/31 03:47:20;;;;;;;23.70;14.10;;;;;;;15.45;75.54;99500.21;108924;1277;23209;-60
2022/08/31 03:49:49;;;;;;;29.20;14.30;;;;;;;15.45;75.51;99499.39;108991;1277;22456;-60
2022/08/31 03:52:22;;;;;;;21.30;12.40;;;;;;;15.44;75.54;99500.44;108879;1277;139126;-60
2022/08/31 03:55:07;;;;;;;21.50;13.00;;;;;;;15.43;75.47;99505.25;108852;1280;23479;-60
2022/08/31 03:57:35;;;;;;;27.00;13.20;;;;;;;15.44;75.50;99503.31;108795;1280;138309;-59
2022/08/31 04:00:03;;;;;;;19.10;13.00;;;;;;;15.45;75.41;99502.90;109023;1278;22319;-60
2022/08/31 04:02:39;;;;;;;22.80;11.30;;;;;;;15.45;75.49;99500.98;108861;1277;139965;-57
2022/08/31 04:05:41;;;;;;;22.80;11.00;;;;;;;15.46;75.61;99502.13;108989;1277;22472;-60
2022/08/31 04:08:11;;;;;;;17.50;10.30;;;;;;;15.46;75.83;99500.58;108957;1277;22426;-59
2022/08/31 04:10:46;;;;;;;14.70;9.40;;;;;;;15.46;76.08;99499.71;108828;1280;138916;-58
2022/08/31 04:13:31;;;;;;;15.90;8.50;;;;;;;15.49;76.16;99503.27;108959;1280;22455;-59
2022/08/31 04:16:27;;;;;;;11.80;7.80;;;;;;;15.54;76.32;99505.59;108761;1278;137950;-59
2022/08/31 04:19:14;;;;;;;11.60;7.70;;;;;;;15.61;76.39;99505.84;109067;1277;23130;-58
2022/08/31 04:22:00;;;;;;;13.40;7.00;;;;;;;15.71;76.55;99508.92;108922;1278;138646;-58
2022/08/31 04:24:28;;;;;;;10.20;6.10;;;;;;;15.81;76.56;99510.02;108980;1277;22449;-58
2022/08/31 04:26:55;;;;;;;9.40;6.20;;;;;;;15.96;76.56;99509.40;109014;1276;138764;-59
2022/08/31 04:29:22;;;;;;;15.10;7.10;;;;;;;16.14;76.38;99507.75;108856;1279;22453;-59
2022/08/31 04:31:49;;;;;;;10.40;6.20;;;;;;;16.37;76.06;99511.72;108932;1278;22888;-59
2022/08/31 04:34:16;;;;;;;9.10;5.60;;;;;;;16.63;75.37;99503.23;108898;1277;138633;-59
2022/08/31 04:36:45;;;;;;;9.30;6.30;;;;;;;16.91;74.75;99506.92;108963;1277;22455;-59
2022/08/31 04:39:12;;;;;;;11.70;6.00;;;;;;;17.22;73.94;99505.80;108801;1280;138120;-61
2022/08/31 04:41:39;;;;;;;9.20;5.70;;;;;;;17.49;72.96;99506.80;108998;1278;22469;-59
2022/08/31 04:44:10;;;;;;;8.80;6.20;;;;;;;17.74;72.10;99510.37;109106;1278;22455;-59
2022/08/31 04:46:39;;;;;;;10.00;5.90;;;;;;;17.99;71.34;99510.67;108740;1277;138139;-59
2022/08/31 04:49:08;;;;;;;8.40;5.80;;;;;;;18.24;70.63;99508.40;108824;1277;22521;-59
2022/08/31 04:51:35;;;;;;;8.50;6.00;;;;;;;18.48;69.64;99510.36;108783;1277;139095;-60
2022/08/31 04:54:03;;;;;;;10.40;5.90;;;;;;;18.67;68.85;99511.44;108904;1280;23409;-59
2022/08/31 04:56:31;;;;;;;10.00;6.00;;;;;;;18.87;68.25;99507.11;108776;1278;139301;-60
2022/08/31 04:59:03;;;;;;;11.90;6.00;;;;;;;19.07;67.70;99506.84;108962;1277;23631;-60
2022/08/31 05:01:38;;;;;;;11.70;5.40;;;;;;;19.22;66.67;99504.83;108973;1277;22482;-59
2022/08/31 05:04:35;;;;;;;8.40;5.90;;;;;;;19.35;65.93;99507.77;108901;1277;137485;-64
2022/08/31 05:07:02;;;;;;;13.60;5.70;;;;;;;19.42;65.83;99508.04;108932;1280;22493;-59
2022/08/31 05:09:29;;;;;;;12.60;5.70;;;;;;;19.50;65.55;99507.61;108923;1277;138386;-59
2022/08/31 05:11:56;;;;;;;9.00;5.80;;;;;;;19.54;65.11;99508.16;108958;1277;22464;-62
2022/08/31 05:14:23;;;;;;;12.30;5.20;;;;;;;19.57;64.89;99513.09;108892;1277;138942;-59
2022/08/31 05:17:05;;;;;;;8.20;5.10;;;;;;;19.62;64.72;99511.32;108700;1280;22455;-59
2022/08/31 05:19:40;;;;;;;10.50;5.00;;;;;;;19.70;64.43;99513.11;108995;1278;22471;-58
2022/08/31 05:22:07;;;;;;;11.90;6.00;;;;;;;19.77;64.39;99511.59;108856;1279;138656;-59
2022/08/31 05:24:37;;;;;;;11.50;5.50;;;;;;;19.87;64.19;99514.55;108982;1279;22211;-58
2022/08/31 05:27:04;;;;;;;10.00;5.20;;;;;;;20.00;63.91;99512.42;108836;1280;137843;-58
2022/08/31 05:29:31;;;;;;;8.50;5.40;;;;;;;20.15;63.37;99511.41;108936;1279;22459;-58
2022/08/31 05:32:27;;;;;;;7.40;4.90;;;;;;;20.32;63.01;99509.45;108875;1277;138439;-59
2022/08/31 05:34:54;;;;;;;7.00;4.90;;;;;;;20.48;62.81;99505.27;109074;1277;22468;-58
2022/08/31 05:37:21;;;;;;;6.70;4.90;;;;;;;20.62;62.30;99505.20;109031;1277;22453;-58
2022/08/31 05:39:50;;;;;;;12.00;5.70;;;;;;;20.73;61.89;99504.80;108958;1278;137926;-59
2022/08/31 05:42:19;;;;;;;6.80;4.80;;;;;;;20.85;61.44;99506.09;108987;1277;22458;-58
2022/08/31 05:44:46;;;;;;;6.70;4.90;;;;;;;20.92;61.13;99506.64;108928;1279;138612;-58
2022/08/31 05:47:13;;;;;;;5.80;4.10;;;;;;;20.97;61.09;99505.86;109047;1277;22485;-59
2022/08/31 05:49:41;;;;;;;7.90;4.80;;;;;;;21.01;60.92;99506.45;109020;1280;22438;-58
2022/08/31 05:52:12;;;;;;;10.40;5.30;;;;;;;21.03;60.65;99508.83;108794;1277;138533;-58
2022/08/31 05:54:40;;;;;;;11.00;5.10;;;;;;;20.96;60.89;99506.70;108934;1277;22666;-58
2022/08/31 05:57:07;;;;;;;8.40;4.50;;;;;;;20.88;61.03;99510.36;108906;1278;137631;-58
2022/08/31 05:59:36;;;;;;;6.10;4.50;;;;;;;20.79;61.33;99512.51;109014;1280;23348;-58
2022/08/31 06:02:03;;;;;;;6.30;4.20;;;;;;;20.73;61.45;99512.06;108880;1279;22508;-59
2022/08/31 06:04:32;;;;;;;17.00;5.10;;;;;;;20.69;61.82;99512.64;108850;1280;139069;-58
2022/08/31 06:06:59;;;;;;;9.80;4.80;;;;;;;20.65;61.98;99512.60;108767;1277;23227;-58
2022/08/31 06:09:32;;;;;;;6.60;4.70;;;;;;;20.58;61.73;99509.15;108876;1280;139072;-58
2022/08/31 06:12:00;;;;;;;8.80;5.10;;;;;;;20.49;62.21;99511.09;109021;1277;22456;-58
2022/08/31 06:14:27;;;;;;;6.40;4.50;;;;;;;20.41;62.39;99511.05;108878;1279;137453;-58
2022/08/31 06:16:55;;;;;;;10.60;4.90;;;;;;;20.31;62.82;99505.88;109139;1277;22550;-58
2022/08/31 06:19:22;;;;;;;18.10;5.20;;;;;;;20.26;62.96;99503.02;108748;1277;22456;-58
2022/08/31 06:21:50;;;;;;;9.00;4.60;;;;;;;20.23;63.17;99507.04;108983;1277;139316;-57
2022/08/31 06:24:26;;;;;;;28.40;6.00;;;;;;;20.22;63.33;99503.68;109057;1277;22403;-58
2022/08/31 06:26:57;;;;;;;13.10;4.90;;;;;;;20.21;63.68;99505.83;109030;1277;138097;-58
2022/08/31 06:29:30;;;;;;;18.90;5.10;;;;;;;20.22;63.95;99507.67;109147;1277;23861;-58
2022/08/31 06:31:59;;;;;;;14.30;4.40;;;;;;;20.26;64.35;99509.62;109105;1277;22485;-59
2022/08/31 06:34:27;;;;;;;19.30;4.60;;;;;;;20.32;64.14;99510.65;109086;1277;138336;-59
2022/08/31 06:37:04;;;;;;;;;;;;;;;20.38;63.80;99510.55;109102;1277;22509;-58
2022/08/31 06:39:37;;;;;;;7.10;3.50;;;;;;;20.42;63.74;99512.35;108901;1277;125228;-58
2022/08/31 06:42:15;;;;;;;8.90;3.50;;;;;;;20.47;63.42;99512.89;109096;1277;22211;-58
2022/08/31 06:45:07;;;;;;;9.60;3.60;;;;;;;20.53;63.69;99515.69;108806;1277;137604;-58
2022/08/31 06:47:40;;;;;;;15.20;4.00;;;;;;;20.60;63.15;99514.05;109019;1277;22449;-59
2022/08/31 06:50:09;;;;;;;6.60;3.20;;;;;;;20.63;62.89;99515.85;109235;1277;22481;-58
2022/08/31 06:52:35;;;;;;;4.20;2.90;;;;;;;20.67;62.92;99515.08;109028;1277;136968;-58
2022/08/31 06:55:43;;;;;;;5.90;2.90;;;;;;;20.72;62.68;99516.65;108740;1277;22493;-58
2022/08/31 06:58:28;;;;;;;9.30;3.90;;;;;;;20.75;63.11;99517.64;109409;1274;137845;-58
2022/08/31 07:01:18;;;;;;;10.10;3.80;;;;;;;20.80;63.02;99517.49;109303;1274;22412;-58
2022/08/31 07:04:10;;;;;;;5.60;3.80;;;;;;;20.84;62.82;99516.42;109234;1274;138527;-59
2022/08/31 07:06:39;;;;;;;6.40;4.30;;;;;;;20.84;62.39;99519.52;109274;1277;23268;-58
2022/08/31 07:09:08;;;;;;;4.90;3.40;;;;;;;20.80;62.20;99516.64;109185;1277;137598;-58
2022/08/31 07:11:39;;;;;;;3.40;2.90;;;;;;;20.75;62.81;99519.76;109291;1274;22557;-58
2022/08/31 07:14:13;;;;;;;5.30;2.90;;;;;;;20.74;62.90;99517.96;109289;1274;22446;-58
2022/08/31 07:16:41;;;;;;;6.40;2.60;;;;;;;20.75;63.02;99513.11;108953;1277;137952;-58
2022/08/31 07:19:09;;;;;;;5.40;3.10;;;;;;;20.78;63.23;99513.77;109259;1274;22450;-61
2022/08/31 07:21:42;;;;;;;5.00;3.00;;;;;;;20.83;63.49;99511.08;109174;1274;139196;-58
2022/08/31 07:24:09;;;;;;;4.70;2.60;;;;;;;20.88;63.33;99508.44;109239;1274;23627;-58
2022/08/31 07:26:41;;;;;;;6.10;2.70;;;;;;;20.94;63.37;99513.09;109104;1274;138756;-58
2022/08/31 07:29:08;;;;;;;4.80;2.80;;;;;;;21.01;62.95;99514.50;109385;1274;23166;-58
2022/08/31 07:31:42;;;;;;;25.10;3.80;;;;;;;21.07;63.14;99512.45;109294;1274;22582;-58
2022/08/31 07:34:10;;;;;;;5.40;3.30;;;;;;;21.13;63.18;99511.88;109140;1274;139110;-58
2022/08/31 07:42:30;;;;;;;5.10;2.30;;;;;;;21.32;61.79;99515.98;109293;1274;22542;-58
2022/08/31 07:44:58;;;;;;;6.00;2.20;;;;;;;21.26;61.54;99513.12;109121;1274;138121;-58
2022/08/31 07:47:27;;;;;;;4.20;2.30;;;;;;;21.20;61.77;99511.92;109217;1274;23772;-58
2022/08/31 07:49:55;;;;;;;3.60;2.20;;;;;;;21.18;62.26;99509.98;109287;1274;22528;-58
2022/08/31 07:52:33;;;;;;;3.90;2.70;;;;;;;21.21;62.63;99506.38;109152;1277;138242;-58
2022/08/31 07:55:17;;;;;;;3.70;1.90;;;;;;;21.26;62.37;99503.63;109286;1274;22540;-58
2022/08/31 07:57:50;;;;;;;12.40;2.30;;;;;;;21.35;62.39;99503.61;109165;1274;138175;-59
2022/08/31 08:00:25;;;;;;;3.90;2.20;;;;;;;21.43;62.23;99506.76;109204;1274;22488;-59
2022/08/31 08:02:52;;;;;;;2.90;1.90;;;;;;;21.50;61.62;99509.95;109304;1274;137787;-59
2022/08/31 08:05:24;;;;;;;3.30;1.70;;;;;;;21.50;61.04;99507.76;109437;1274;22446;-59
2022/08/31 08:08:13;;;;;;;5.10;2.50;;;;;;;21.46;60.94;99506.34;109343;1274;22421;-58
2022/08/31 08:10:55;;;;;;;4.40;2.00;;;;;;;21.42;61.10;99504.96;109271;1274;22484;-59
2022/08/31 08:13:39;;;;;;;3.10;1.90;;;;;;;21.39;61.14;99498.58;109386;1272;22260;-58
2022/08/31 08:16:22;;;;;;;7.20;2.10;;;;;;;21.41;61.28;99492.61;109312;1274;138789;-58
2022/08/31 08:19:20;;;;;;;4.00;2.10;;;;;;;21.46;61.49;99489.86;109303;1274;22424;-58
2022/08/31 08:21:47;;;;;;;2.30;1.80;;;;;;;21.54;61.74;99485.65;109147;1274;138615;-58
2022/08/31 08:24:20;;;;;;;3.40;1.90;;;;;;;21.63;61.19;99486.18;109222;1277;23224;-59
2022/08/31 08:27:16;;;;;;;2.80;1.90;;;;;;;21.74;60.91;99483.81;109254;1274;138709;-59
2022/08/31 08:29:56;;;;;;;6.00;1.80;;;;;;;21.80;60.02;99482.96;109409;1274;23004;-58
2022/08/31 08:32:30;;;;;;;10.70;2.90;;;;;;;21.84;60.27;99482.95;109180;1274;138911;-58
2022/08/31 08:34:57;;;;;;;3.90;2.30;;;;;;;21.89;60.38;99479.38;109411;1274;22495;-58
2022/08/31 08:37:26;;;;;;;7.10;2.20;;;;;;;21.96;60.28;99471.85;109271;1274;23325;-58
2022/08/31 08:40:28;;;;;;;8.50;2.60;;;;;;;22.03;59.62;99475.52;109050;1274;138889;-61
2022/08/31 08:42:57;;;;;;;6.10;2.10;;;;;;;22.02;59.08;99475.88;109076;1274;23118;-61
2022/08/31 08:45:24;;;;;;;2.50;1.60;;;;;;;21.95;58.96;99478.56;109166;1274;137556;-61
2022/08/31 08:47:55;;;;;;;3.30;2.00;;;;;;;21.89;58.94;99481.27;109273;1274;22436;-61
2022/08/31 08:50:25;;;;;;;6.80;1.80;;;;;;;21.84;59.26;99479.23;109152;1274;22443;-60
2022/08/31 08:52:52;;;;;;;3.00;2.00;;;;;;;21.81;59.66;99477.61;109428;1274;22554;-61
2022/08/31 08:55:21;;;;;;;3.10;1.90;;;;;;;21.81;59.96;99473.23;109195;1274;22451;-61
2022/08/31 08:57:50;;;;;;;2.40;1.50;;;;;;;21.83;60.12;99470.00;109119;1274;138283;-62
2022/08/31 09:00:24;;;;;;;2.90;1.70;;;;;;;21.85;59.84;99475.41;109339;1274;22461;-62
2022/08/31 09:03:00;;;;;;;3.00;1.90;;;;;;;21.86;59.21;99477.16;109088;1274;137767;-62
2022/08/31 09:06:05;;;;;;;4.60;1.70;;;;;;;21.79;59.21;99475.02;109312;1274;23320;-63
2022/08/31 09:08:41;;;;;;;2.90;2.10;;;;;;;21.72;59.31;99472.48;108898;1276;137519;-63
2022/08/31 09:11:34;;;;;;;2.70;1.60;;;;;;;21.68;59.71;99466.83;109326;1274;22466;-62
2022/08/31 09:14:29;;;;;;;3.30;1.70;;;;;;;21.65;59.97;99470.92;109392;1274;23573;-62
2022/08/31 09:17:06;;;;;;;2.30;1.50;;;;;;;21.68;59.24;99472.15;109152;1274;22906;-62
2022/08/31 09:19:57;;;;;;;2.40;1.40;;;;;;;21.70;57.99;99471.54;109175;1277;22433;-61
2022/08/31 09:22:20;;;;;;;3.10;2.00;;;;;;;21.70;58.03;99473.91;109288;1274;138271;-61
2022/08/31 09:24:54;;;;;;;3.10;2.00;;;;;;;21.73;58.57;99471.16;109323;1274;22523;-61
2022/08/31 09:27:56;;;;;;;5.90;2.50;;;;;;;21.73;58.63;99469.17;109226;1276;138387;-62
2022/08/31 09:30:42;;;;;;;3.60;2.10;;;;;;;21.70;58.87;99474.59;109299;1274;22493;-62
2022/08/31 09:33:16;;;;;;;5.00;2.30;;;;;;;21.68;59.10;99474.30;108990;1276;138751;-62
2022/08/31 09:35:43;;;;;;;4.50;1.50;;;;;;;21.68;58.95;99474.44;109407;1274;22468;-62
2022/08/31 09:38:30;;;;;;;2.20;1.70;;;;;;;21.70;58.43;99468.36;109308;1274;22598;-62
2022/08/31 09:40:57;;;;;;;1.60;1.30;;;;;;;21.75;57.78;99471.42;109408;1274;22909;-59
2022/08/31 09:43:44;;;;;;;2.60;1.60;;;;;;;21.77;57.29;99468.11;109495;1274;22854;-59
2022/08/31 09:46:29;;;;;;;2.40;1.80;;;;;;;21.79;57.38;99466.59;109163;1274;137694;-59
2022/08/31 09:49:01;;;;;;;7.50;1.80;;;;;;;21.80;57.96;99464.23;109481;1274;22427;-60
2022/08/31 09:51:36;;;;;;;6.30;2.10;;;;;;;21.83;58.44;99462.79;109303;1272;138793;-59
2022/08/31 09:56:56;;;;;;;4.60;1.80;;;;;;;21.92;57.56;99462.67;109203;1274;138725;-59
2022/08/31 09:59:38;;;;;;;7.60;2.40;;;;;;;21.90;56.63;99461.55;109325;1274;22237;-59
2022/08/31 10:02:27;;;;;;;1.60;1.50;;;;;;;21.87;56.41;99462.16;109346;1274;22460;-59
2022/08/31 10:04:59;;;;;;;1.40;1.20;;;;;;;21.87;56.33;99465.80;109334;1274;22590;-59
2022/08/31 10:08:03;;;;;;;1.80;1.40;;;;;;;21.89;55.73;99463.13;109373;1274;22463;-59
2022/08/31 10:10:33;;;;;;;2.90;2.10;;;;;;;21.92;55.44;99462.83;108441;1281;137609;-58
2022/08/31 10:13:03;;;;;;;2.20;1.70;;;;;;;21.92;55.65;99458.58;108545;1281;22489;-58
2022/08/31 10:15:50;;;;;;;1.80;1.60;;;;;;;21.93;55.30;99455.81;108490;1281;137620;-58
2022/08/31 10:18:54;;;;;;;5.30;1.90;;;;;;;21.96;56.03;99450.61;108607;1281;22457;-58
2022/08/31 10:21:50;;;;;;;2.10;1.70;;;;;;;22.07;56.23;99443.08;108637;1280;139106;-59
2022/08/31 10:24:27;;;;;;;5.30;2.20;;;;;;;22.15;55.86;99454.02;108962;1280;23397;-58
2022/08/31 10:27:11;;;;;;;3.10;2.20;;;;;;;22.16;56.15;99451.77;108768;1280;139631;-57
2022/08/31 10:29:40;;;;;;;4.10;2.00;;;;;;;22.13;56.26;99453.90;108671;1280;22480;-58
2022/08/31 10:32:16;;;;;;;4.10;1.80;;;;;;;22.12;56.55;99454.95;109002;1279;22468;-58
2022/08/31 10:35:04;;;;;;;5.80;2.30;;;;;;;22.14;56.52;99454.26;108683;1280;139424;-58
2022/08/31 10:37:48;;;;;;;6.10;2.20;;;;;;;22.16;56.39;99452.29;108809;1280;23523;-57
2022/08/31 10:40:25;;;;;;;2.70;2.10;;;;;;;22.17;55.26;99455.98;108721;1280;140165;-57
2022/08/31 10:43:20;;;;;;;3.30;1.80;;;;;;;22.16;54.58;99448.54;108831;1280;22473;-57
2022/08/31 10:45:49;;;;;;;4.00;2.20;;;;;;;22.12;54.98;99444.50;108828;1274;137829;-57
2022/08/31 10:48:21;;;;;;;3.60;2.30;;;;;;;22.11;54.86;99444.18;109463;1274;22450;-57
2022/08/31 10:50:57;;;;;;;2.30;1.90;;;;;;;22.10;55.21;99439.16;109169;1274;137408;-57
2022/08/31 10:53:32;;;;;;;4.10;2.30;;;;;;;22.13;54.48;99434.60;109384;1274;22424;-57
2022/08/31 10:56:13;;;;;;;3.20;1.90;;;;;;;22.16;54.55;99433.64;109373;1274;22516;-57
2022/08/31 10:58:52;;;;;;;2.10;1.70;;;;;;;22.20;54.18;99439.73;109292;1274;138552;-58
2022/08/31 11:01:25;;;;;;;3.90;2.10;;;;;;;22.21;53.80;99430.27;109357;1274;23431;-59
2022/08/31 11:04:10;;;;;;;3.40;2.00;;;;;;;22.28;54.21;99433.69;109380;1274;138825;-57
2022/08/31 11:06:55;;;;;;;5.90;2.50;;;;;;;22.41;54.72;99438.06;109351;1274;22552;-57
2022/08/31 11:09:34;;;;;;;4.80;1.90;;;;;;;22.51;53.68;99430.36;109327;1274;137429;-58
2022/08/31 11:12:08;;;;;;;8.70;2.70;;;;;;;22.57;53.35;99441.46;109453;1274;22455;-58
2022/08/31 11:14:48;;;;;;;7.00;2.60;;;;;;;22.61;52.92;99441.37;109227;1274;137589;-57
2022/08/31 11:17:18;;;;;;;5.80;2.30;;;;;;;22.61;52.85;99440.88;109394;1274;22428;-58
2022/08/31 11:20:04;;;;;;;7.00;2.10;;;;;;;22.55;52.90;99444.86;109349;1274;23666;-58
2022/08/31 11:22:47;;;;;;;4.10;2.10;;;;;;;22.42;53.37;99444.29;109333;1274;137390;-58
2022/08/31 11:25:23;;;;;;;4.40;2.40;;;;;;;22.31;53.86;99441.35;109307;1275;22459;-58
2022/08/31 11:28:07;;;;;;;2.10;1.90;;;;;;;22.23;53.21;99439.83;109251;1274;137731;-58
2022/08/31 11:30:36;;;;;;;3.50;2.00;;;;;;;22.13;53.50;99437.15;109349;1274;22448;-58
2022/08/31 11:33:10;;;;;;;4.70;2.10;;;;;;;22.12;54.54;99439.41;109086;1276;138953;-58
2022/08/31 11:35:59;;;;;;;3.50;2.10;;;;;;;22.16;55.00;99436.33;109434;1274;22468;-58
2022/08/31 11:38:50;;;;;;;3.80;1.90;;;;;;;22.21;54.34;99436.75;109198;1274;137508;-58
2022/08/31 11:41:30;;;;;;;5.10;2.00;;;;;;;22.23;54.13;99434.75;109380;1274;22914;-58
2022/08/31 11:43:57;;;;;;;7.90;1.90;;;;;;;22.22;53.99;99437.28;109482;1273;22467;-58
2022/08/31 11:46:24;;;;;;;4.00;1.60;;;;;;;22.24;53.03;99432.40;109253;1274;137982;-58
2022/08/31 11:48:53;;;;;;;2.40;1.50;;;;;;;22.28;53.54;99432.31;109312;1275;22536;-58
2022/08/31 11:51:34;;;;;;;6.20;1.60;;;;;;;22.35;53.43;99433.70;109289;1274;138541;-58
2022/08/31 11:54:40;;;;;;;4.00;2.00;;;;;;;22.38;53.45;99430.34;109290;1277;22516;-58
2022/08/31 11:57:09;;;;;;;2.10;1.90;;;;;;;22.38;53.39;99425.47;109186;1274;139056;-58
2022/08/31 11:59:38;;;;;;;3.50;2.20;;;;;;;22.36;53.53;99423.13;109328;1274;22480;-58
2022/08/31 12:02:24;;;;;;;4.80;1.80;;;;;;;22.38;53.04;99423.34;109283;1274;23122;-58